sensor_id;sensor_type;location;lat;lon;timestamp;pressure;altitude;pressure_sealevel;temperature;humidity
62436;BME280;48480;50.252;18.848;2022-10-31T00:01:45;99063.65;;;11.33;78.93
62436;BME280;48480;50.252;18.848;2022-10-31T00:04:10;99035.04;;;11.15;78.77
62436;BME280;48480;50.252;18.848;2022-10-31T00:06:47;99062.91;;;11.32;78.76
62436;BME280;48480;50.252;18.848;2022-10-31T00:09:12;99062.45;;;11.32;78.67
62436;BME280;48480;50.252;18.848;2022-10-31T00:11:38;99057.83;;;11.32;78.75
62436;BME280;48480;50.252;18.848;2022-10-31T00:14:04;99059.98;;;11.33;79.06
62436;BME280;48480;50.252;18.848;2022-10-31T00:16:30;99061.20;;;11.36;79.12
62436;BME280;48480;50.252;18.848;2022-10-31T00:18:59;99059.02;;;11.37;78.91
62436;BME280;48480;50.252;18.848;2022-10-31T00:21:26;99059.59;;;11.39;78.94
62436;BME280;48480;50.252;18.848;2022-10-31T00:24:01;99061.95;;;11.39;78.91
62436;BME280;48480;50.252;18.848;2022-10-31T00:26:36;99062.42;;;11.37;79.00
62436;BME280;48480;50.252;18.848;2022-10-31T00:29:05;99062.55;;;11.34;79.05
62436;BME280;48480;50.252;18.848;2022-10-31T00:31:36;99061.55;;;11.31;79.28
62436;BME280;48480;50.252;18.848;2022-10-31T00:34:07;99046.81;;;11.22;79.19
62436;BME280;48480;50.252;18.848;2022-10-31T00:36:32;99057.05;;;11.25;79.14
62436;BME280;48480;50.252;18.848;2022-10-31T00:38:58;99056.13;;;11.24;79.06
62436;BME280;48480;50.252;18.848;2022-10-31T00:41:24;99058.01;;;11.22;79.01
62436;BME280;48480;50.252;18.848;2022-10-31T00:43:50;99038.67;;;11.06;79.03
62436;BME280;48480;50.252;18.848;2022-10-31T00:46:16;99051.30;;;11.09;78.94
62436;BME280;48480;50.252;18.848;2022-10-31T00:48:42;99059.55;;;11.13;78.97
62436;BME280;48480;50.252;18.848;2022-10-31T00:51:08;99060.80;;;11.09;78.91
62436;BME280;48480;50.252;18.848;2022-10-31T00:53:34;99061.50;;;11.05;78.99
62436;BME280;48480;50.252;18.848;2022-10-31T00:56:00;99062.31;;;11.00;79.12
62436;BME280;48480;50.252;18.848;2022-10-31T00:58:28;99044.88;;;10.85;79.14
62436;BME280;48480;50.252;18.848;2022-10-31T01:00:54;99065.17;;;10.90;79.16
62436;BME280;48480;50.252;18.848;2022-10-31T01:03:22;99064.92;;;10.84;79.31
62436;BME280;48480;50.252;18.848;2022-10-31T01:06:02;99061.83;;;10.80;79.45
62436;BME280;48480;50.252;18.848;2022-10-31T01:08:28;99063.89;;;10.76;79.39
62436;BME280;48480;50.252;18.848;2022-10-31T01:11:06;99063.80;;;10.71;79.43
62436;BME280;48480;50.252;18.848;2022-10-31T01:13:34;99059.14;;;10.65;79.72
62436;BME280;48480;50.252;18.848;2022-10-31T01:16:01;99050.89;;;10.54;79.82
62436;BME280;48480;50.252;18.848;2022-10-31T01:18:27;99029.16;;;10.39;79.85
62436;BME280;48480;50.252;18.848;2022-10-31T01:21:18;99061.29;;;10.60;79.87
62436;BME280;48480;50.252;18.848;2022-10-31T01:23:45;99024.70;;;10.33;79.78
62436;BME280;48480;50.252;18.848;2022-10-31T01:26:15;99061.96;;;10.56;79.88
62436;BME280;48480;50.252;18.848;2022-10-31T01:29:02;99064.91;;;10.54;79.93
62436;BME280;48480;50.252;18.848;2022-10-31T01:31:31;99063.90;;;10.50;80.12
62436;BME280;48480;50.252;18.848;2022-10-31T01:33:58;99064.34;;;10.47;80.21
62436;BME280;48480;50.252;18.848;2022-10-31T01:36:36;99033.98;;;10.26;80.35
62436;BME280;48480;50.252;18.848;2022-10-31T01:39:06;99029.75;;;10.23;80.44
62436;BME280;48480;50.252;18.848;2022-10-31T01:41:41;99022.67;;;10.18;80.47
62436;BME280;48480;50.252;18.848;2022-10-31T01:46:50;99052.04;;;10.38;80.67
62436;BME280;48480;50.252;18.848;2022-10-31T01:52:01;99022.70;;;10.16;80.80
62436;BME280;48480;50.252;18.848;2022-10-31T01:54:33;99051.20;;;10.36;80.76
62436;BME280;48480;50.252;18.848;2022-10-31T01:57:00;99061.73;;;10.41;80.58
62436;BME280;48480;50.252;18.848;2022-10-31T01:59:43;99028.36;;;10.20;80.72
62436;BME280;48480;50.252;18.848;2022-10-31T02:02:15;99060.40;;;10.41;80.49
62436;BME280;48480;50.252;18.848;2022-10-31T02:04:42;99061.52;;;10.41;80.36
62436;BME280;48480;50.252;18.848;2022-10-31T02:07:13;99059.50;;;10.40;80.17
62436;BME280;48480;50.252;18.848;2022-10-31T02:09:47;99059.80;;;10.39;80.19
62436;BME280;48480;50.252;18.848;2022-10-31T02:12:14;99029.70;;;10.15;80.21
62436;BME280;48480;50.252;18.848;2022-10-31T02:14:40;99057.90;;;10.35;80.06
62436;BME280;48480;50.252;18.848;2022-10-31T02:17:13;99057.61;;;10.35;80.00
62436;BME280;48480;50.252;18.848;2022-10-31T02:20:12;99058.54;;;10.35;79.76
62436;BME280;48480;50.252;18.848;2022-10-31T02:28:23;99052.08;;;10.16;79.39
62436;BME280;48480;50.252;18.848;2022-10-31T02:34:02;99066.86;;;10.13;79.50
62436;BME280;48480;50.252;18.848;2022-10-31T02:36:48;99035.19;;;9.90;79.31
62436;BME280;48480;50.252;18.848;2022-10-31T02:39:51;99063.64;;;10.06;79.23
62436;BME280;48480;50.252;18.848;2022-10-31T02:42:35;99070.94;;;10.04;79.04
62436;BME280;48480;50.252;18.848;2022-10-31T02:47:57;99054.26;;;9.93;78.80
62436;BME280;48480;50.252;18.848;2022-10-31T02:50:33;99065.99;;;9.99;78.69
62436;BME280;48480;50.252;18.848;2022-10-31T02:53:01;99068.77;;;9.97;78.64
62436;BME280;48480;50.252;18.848;2022-10-31T02:58:06;99067.70;;;9.90;78.63
62436;BME280;48480;50.252;18.848;2022-10-31T03:01:05;99071.17;;;9.88;78.65
62436;BME280;48480;50.252;18.848;2022-10-31T03:11:47;99073.14;;;9.70;79.20
62436;BME280;48480;50.252;18.848;2022-10-31T03:14:23;99075.66;;;9.67;79.29
62436;BME280;48480;50.252;18.848;2022-10-31T03:16:51;99075.04;;;9.62;79.40
62436;BME280;48480;50.252;18.848;2022-10-31T03:19:20;99074.09;;;9.59;79.55
62436;BME280;48480;50.252;18.848;2022-10-31T03:21:58;99075.29;;;9.57;79.51
62436;BME280;48480;50.252;18.848;2022-10-31T03:24:30;99079.23;;;9.55;79.65
62436;BME280;48480;50.252;18.848;2022-10-31T03:27:12;99084.91;;;9.51;79.82
62436;BME280;48480;50.252;18.848;2022-10-31T03:29:41;99085.11;;;9.48;79.74
62436;BME280;48480;50.252;18.848;2022-10-31T03:32:20;99088.83;;;9.45;79.84
62436;BME280;48480;50.252;18.848;2022-10-31T03:34:47;99089.85;;;9.40;80.18
62436;BME280;48480;50.252;18.848;2022-10-31T03:37:18;99094.91;;;9.39;80.40
62436;BME280;48480;50.252;18.848;2022-10-31T03:39:50;99057.95;;;9.13;80.56
62436;BME280;48480;50.252;18.848;2022-10-31T03:42:27;99070.05;;;9.20;80.77
62436;BME280;48480;50.252;18.848;2022-10-31T03:45:11;99053.08;;;9.15;80.81
62436;BME280;48480;50.252;18.848;2022-10-31T03:47:52;99062.38;;;9.19;80.87
62436;BME280;48480;50.252;18.848;2022-10-31T03:50:35;99062.20;;;9.22;80.75
62436;BME280;48480;50.252;18.848;2022-10-31T03:53:13;99058.36;;;9.20;80.75
62436;BME280;48480;50.252;18.848;2022-10-31T03:55:48;99100.39;;;9.45;80.80
62436;BME280;48480;50.252;18.848;2022-10-31T03:58:25;99092.37;;;9.38;80.63
62436;BME280;48480;50.252;18.848;2022-10-31T04:00:56;99099.21;;;9.42;80.56
62436;BME280;48480;50.252;18.848;2022-10-31T04:03:28;99073.41;;;9.24;80.47
62436;BME280;48480;50.252;18.848;2022-10-31T04:05:58;99102.81;;;9.41;80.65
62436;BME280;48480;50.252;18.848;2022-10-31T04:08:29;99103.77;;;9.41;80.40
62436;BME280;48480;50.252;18.848;2022-10-31T04:10:59;99081.04;;;9.26;80.11
62436;BME280;48480;50.252;18.848;2022-10-31T04:13:30;99072.45;;;9.16;79.94
62436;BME280;48480;50.252;18.848;2022-10-31T04:15:57;99111.27;;;9.40;79.85
62436;BME280;48480;50.252;18.848;2022-10-31T04:18:28;99111.80;;;9.38;79.69
62436;BME280;48480;50.252;18.848;2022-10-31T04:21:05;99078.85;;;9.14;79.72
62436;BME280;48480;50.252;18.848;2022-10-31T04:23:37;99063.41;;;8.98;79.75
62436;BME280;48480;50.252;18.848;2022-10-31T04:26:04;99113.95;;;9.26;79.93
62436;BME280;48480;50.252;18.848;2022-10-31T04:28:30;99099.16;;;9.08;80.02
62436;BME280;48480;50.252;18.848;2022-10-31T04:31:07;99086.62;;;8.98;80.14
62436;BME280;48480;50.252;18.848;2022-10-31T04:34:04;99117.23;;;9.17;80.27
62436;BME280;48480;50.252;18.848;2022-10-31T04:36:35;99115.08;;;9.16;80.28
62436;BME280;48480;50.252;18.848;2022-10-31T04:39:06;99114.16;;;9.19;80.16
62436;BME280;48480;50.252;18.848;2022-10-31T04:41:37;99113.46;;;9.19;80.15
62436;BME280;48480;50.252;18.848;2022-10-31T04:44:08;99088.98;;;9.05;80.19
62436;BME280;48480;50.252;18.848;2022-10-31T04:46:57;99119.17;;;9.20;80.29
62436;BME280;48480;50.252;18.848;2022-10-31T04:49:22;99117.72;;;9.21;80.21
62436;BME280;48480;50.252;18.848;2022-10-31T04:51:48;99115.40;;;9.22;80.14
62436;BME280;48480;50.252;18.848;2022-10-31T04:54:16;99070.93;;;8.92;80.14
62436;BME280;48480;50.252;18.848;2022-10-31T04:56:42;99100.12;;;9.12;80.03
62436;BME280;48480;50.252;18.848;2022-10-31T04:59:08;99116.69;;;9.22;79.92
62436;BME280;48480;50.252;18.848;2022-10-31T05:01:39;99113.64;;;9.21;79.80
62436;BME280;48480;50.252;18.848;2022-10-31T05:04:04;99111.69;;;9.19;79.80
62436;BME280;48480;50.252;18.848;2022-10-31T05:06:37;99070.73;;;8.90;79.83
62436;BME280;48480;50.252;18.848;2022-10-31T05:09:05;99076.29;;;8.91;79.86
62436;BME280;48480;50.252;18.848;2022-10-31T05:11:31;99110.88;;;9.13;79.99
62436;BME280;48480;50.252;18.848;2022-10-31T05:13:59;99102.47;;;9.06;79.77
62436;BME280;48480;50.252;18.848;2022-10-31T05:16:25;99112.67;;;9.10;79.68
62436;BME280;48480;50.252;18.848;2022-10-31T05:18:52;99112.83;;;9.10;79.60
62436;BME280;48480;50.252;18.848;2022-10-31T05:21:29;99119.16;;;9.10;79.55
62436;BME280;48480;50.252;18.848;2022-10-31T05:23:58;99086.73;;;8.86;79.43
62436;BME280;48480;50.252;18.848;2022-10-31T05:26:24;99079.16;;;8.76;79.46
62436;BME280;48480;50.252;18.848;2022-10-31T05:28:52;99122.97;;;9.05;79.50
62436;BME280;48480;50.252;18.848;2022-10-31T05:31:27;99109.82;;;8.96;79.35
62436;BME280;48480;50.252;18.848;2022-10-31T05:33:55;99127.95;;;9.05;79.24
62436;BME280;48480;50.252;18.848;2022-10-31T05:36:30;99129.55;;;9.05;79.32
62436;BME280;48480;50.252;18.848;2022-10-31T05:39:03;99133.19;;;9.05;79.19
62436;BME280;48480;50.252;18.848;2022-10-31T05:41:32;99111.12;;;8.87;79.06
62436;BME280;48480;50.252;18.848;2022-10-31T05:44:00;99138.46;;;9.07;78.98
62436;BME280;48480;50.252;18.848;2022-10-31T05:46:29;99129.23;;;8.93;78.94
62436;BME280;48480;50.252;18.848;2022-10-31T05:49:12;99150.41;;;9.02;79.00
62436;BME280;48480;50.252;18.848;2022-10-31T05:51:41;99149.77;;;8.99;79.20
62436;BME280;48480;50.252;18.848;2022-10-31T05:54:12;99120.70;;;8.78;79.24
62436;BME280;48480;50.252;18.848;2022-10-31T05:56:51;99136.86;;;8.87;79.42
62436;BME280;48480;50.252;18.848;2022-10-31T05:59:22;99115.91;;;8.76;79.24
62436;BME280;48480;50.252;18.848;2022-10-31T06:01:50;99154.79;;;9.03;79.32
62436;BME280;48480;50.252;18.848;2022-10-31T06:04:25;99159.75;;;9.05;79.25
62436;BME280;48480;50.252;18.848;2022-10-31T06:06:56;99161.23;;;9.05;79.25
62436;BME280;48480;50.252;18.848;2022-10-31T06:09:39;99128.48;;;8.81;79.25
62436;BME280;48480;50.252;18.848;2022-10-31T06:12:12;99164.36;;;9.04;79.47
62436;BME280;48480;50.252;18.848;2022-10-31T06:14:44;99169.53;;;9.06;79.77
62436;BME280;48480;50.252;18.848;2022-10-31T06:17:09;99171.06;;;9.11;79.58
62436;BME280;48480;50.252;18.848;2022-10-31T06:19:35;99171.77;;;9.15;79.56
62436;BME280;48480;50.252;18.848;2022-10-31T06:22:00;99172.88;;;9.20;79.63
62436;BME280;48480;50.252;18.848;2022-10-31T06:24:26;99167.32;;;9.22;79.53
62436;BME280;48480;50.252;18.848;2022-10-31T06:26:51;99169.36;;;9.29;79.57
62436;BME280;48480;50.252;18.848;2022-10-31T06:29:16;99168.67;;;9.34;79.47
62436;BME280;48480;50.252;18.848;2022-10-31T06:31:42;99171.27;;;9.40;79.35
62436;BME280;48480;50.252;18.848;2022-10-31T06:34:07;99174.73;;;9.45;79.30
62436;BME280;48480;50.252;18.848;2022-10-31T06:36:33;99173.76;;;9.49;79.15
62436;BME280;48480;50.252;18.848;2022-10-31T06:38:58;99176.49;;;9.52;79.07
62436;BME280;48480;50.252;18.848;2022-10-31T06:41:25;99178.14;;;9.53;79.17
62436;BME280;48480;50.252;18.848;2022-10-31T06:43:51;99182.28;;;9.56;79.22
62436;BME280;48480;50.252;18.848;2022-10-31T06:46:16;99179.40;;;9.59;79.35
62436;BME280;48480;50.252;18.848;2022-10-31T06:48:45;99183.26;;;9.63;79.44
62436;BME280;48480;50.252;18.848;2022-10-31T06:54:00;99184.30;;;9.71;79.50
62436;BME280;48480;50.252;18.848;2022-10-31T06:56:25;99173.48;;;9.62;79.60
62436;BME280;48480;50.252;18.848;2022-10-31T06:58:51;99185.68;;;9.82;79.52
62436;BME280;48480;50.252;18.848;2022-10-31T07:01:17;99192.13;;;9.92;79.56
62436;BME280;48480;50.252;18.848;2022-10-31T07:03:42;99191.23;;;10.01;79.59
62436;BME280;48480;50.252;18.848;2022-10-31T07:06:10;99191.41;;;10.10;79.62
62436;BME280;48480;50.252;18.848;2022-10-31T07:08:42;99153.04;;;9.96;79.71
62436;BME280;48480;50.252;18.848;2022-10-31T07:11:13;99144.02;;;10.09;79.88
62436;BME280;48480;50.252;18.848;2022-10-31T07:13:44;99165.31;;;10.50;79.89
62436;BME280;48480;50.252;18.848;2022-10-31T07:16:10;99196.05;;;11.02;79.67
62436;BME280;48480;50.252;18.848;2022-10-31T07:18:38;99207.94;;;11.52;79.19
62436;BME280;48480;50.252;18.848;2022-10-31T07:21:04;99207.06;;;11.91;78.52
62436;BME280;48480;50.252;18.848;2022-10-31T07:23:30;99206.11;;;12.40;77.78
62436;BME280;48480;50.252;18.848;2022-10-31T07:25:56;99211.60;;;12.80;76.81
62436;BME280;48480;50.252;18.848;2022-10-31T07:28:23;99204.44;;;13.22;75.96
62436;BME280;48480;50.252;18.848;2022-10-31T07:30:56;99209.84;;;13.60;75.03
62436;BME280;48480;50.252;18.848;2022-10-31T07:33:29;99206.36;;;14.00;74.20
62436;BME280;48480;50.252;18.848;2022-10-31T07:36:06;99205.11;;;14.32;73.14
62436;BME280;48480;50.252;18.848;2022-10-31T07:38:37;99206.17;;;14.67;72.19
62436;BME280;48480;50.252;18.848;2022-10-31T07:41:02;99206.80;;;14.96;71.29
62436;BME280;48480;50.252;18.848;2022-10-31T07:43:34;99167.88;;;14.96;70.53
62436;BME280;48480;50.252;18.848;2022-10-31T07:46:08;99197.45;;;15.40;69.74
62436;BME280;48480;50.252;18.848;2022-10-31T07:48:37;99208.33;;;15.69;68.94
62436;BME280;48480;50.252;18.848;2022-10-31T07:51:03;99209.31;;;15.88;68.08
62436;BME280;48480;50.252;18.848;2022-10-31T07:53:28;99212.56;;;15.97;67.67
62436;BME280;48480;50.252;18.848;2022-10-31T07:55:54;99187.51;;;15.94;66.93
62436;BME280;48480;50.252;18.848;2022-10-31T07:58:20;99196.77;;;16.14;66.66
62436;BME280;48480;50.252;18.848;2022-10-31T08:00:47;99204.92;;;16.35;66.16
62436;BME280;48480;50.252;18.848;2022-10-31T08:03:15;99205.52;;;16.48;65.80
62436;BME280;48480;50.252;18.848;2022-10-31T08:05:42;99208.14;;;16.60;65.47
62436;BME280;48480;50.252;18.848;2022-10-31T08:08:10;99206.67;;;16.74;65.28
62436;BME280;48480;50.252;18.848;2022-10-31T08:10:42;99205.88;;;16.95;64.69
62436;BME280;48480;50.252;18.848;2022-10-31T08:13:14;99211.02;;;17.16;63.96
62436;BME280;48480;50.252;18.848;2022-10-31T08:15:40;99210.33;;;17.32;63.14
62436;BME280;48480;50.252;18.848;2022-10-31T08:18:12;99208.45;;;17.42;62.98
62436;BME280;48480;50.252;18.848;2022-10-31T08:20:38;99207.64;;;17.54;62.43
62436;BME280;48480;50.252;18.848;2022-10-31T08:23:04;99207.55;;;17.70;62.09
62436;BME280;48480;50.252;18.848;2022-10-31T08:25:32;99213.84;;;17.89;61.59
62436;BME280;48480;50.252;18.848;2022-10-31T08:27:57;99215.58;;;18.01;61.01
62436;BME280;48480;50.252;18.848;2022-10-31T08:30:28;99208.68;;;18.13;60.81
62436;BME280;48480;50.252;18.848;2022-10-31T08:33:07;99214.23;;;18.30;60.38
62436;BME280;48480;50.252;18.848;2022-10-31T08:35:34;99216.02;;;18.48;60.10
62436;BME280;48480;50.252;18.848;2022-10-31T08:38:00;99215.95;;;18.76;59.62
62436;BME280;48480;50.252;18.848;2022-10-31T08:40:27;99218.95;;;19.01;59.06
62436;BME280;48480;50.252;18.848;2022-10-31T08:42:58;99216.79;;;19.21;58.42
62436;BME280;48480;50.252;18.848;2022-10-31T08:45:23;99215.86;;;19.43;58.05
62436;BME280;48480;50.252;18.848;2022-10-31T08:47:49;99214.26;;;19.64;57.25
62436;BME280;48480;50.252;18.848;2022-10-31T08:50:14;99217.70;;;19.74;56.42
62436;BME280;48480;50.252;18.848;2022-10-31T08:52:40;99217.33;;;19.83;56.07
62436;BME280;48480;50.252;18.848;2022-10-31T08:55:05;99221.34;;;19.93;55.59
62436;BME280;48480;50.252;18.848;2022-10-31T08:57:31;99217.33;;;20.03;55.33
62436;BME280;48480;50.252;18.848;2022-10-31T08:59:56;99219.15;;;20.17;55.13
62436;BME280;48480;50.252;18.848;2022-10-31T09:02:22;99217.95;;;20.33;54.79
62436;BME280;48480;50.252;18.848;2022-10-31T09:04:47;99219.54;;;20.48;54.54
62436;BME280;48480;50.252;18.848;2022-10-31T09:07:13;99220.37;;;20.55;53.86
62436;BME280;48480;50.252;18.848;2022-10-31T09:09:42;99212.86;;;20.45;53.46
62436;BME280;48480;50.252;18.848;2022-10-31T09:12:08;99222.81;;;20.53;53.59
62436;BME280;48480;50.252;18.848;2022-10-31T09:14:33;99224.61;;;20.57;53.48
62436;BME280;48480;50.252;18.848;2022-10-31T09:16:59;99221.11;;;20.58;53.29
62436;BME280;48480;50.252;18.848;2022-10-31T09:19:24;99223.21;;;20.61;53.23
62436;BME280;48480;50.252;18.848;2022-10-31T09:21:53;99224.04;;;20.56;52.86
62436;BME280;48480;50.252;18.848;2022-10-31T09:24:19;99223.62;;;20.59;53.03
62436;BME280;48480;50.252;18.848;2022-10-31T09:26:45;99225.91;;;20.60;53.10
62436;BME280;48480;50.252;18.848;2022-10-31T09:29:10;99222.94;;;20.72;52.72
62436;BME280;48480;50.252;18.848;2022-10-31T09:31:36;99224.63;;;20.81;52.68
62436;BME280;48480;50.252;18.848;2022-10-31T09:34:02;99217.96;;;20.93;52.55
62436;BME280;48480;50.252;18.848;2022-10-31T09:36:27;99222.41;;;21.09;52.42
62436;BME280;48480;50.252;18.848;2022-10-31T09:38:53;99219.07;;;21.26;52.22
62436;BME280;48480;50.252;18.848;2022-10-31T09:41:37;99221.94;;;21.42;51.98
62436;BME280;48480;50.252;18.848;2022-10-31T09:50:17;99218.16;;;21.74;51.26
62436;BME280;48480;50.252;18.848;2022-10-31T09:52:54;99216.34;;;21.85;50.85
62436;BME280;48480;50.252;18.848;2022-10-31T09:55:48;99221.05;;;21.93;50.59
62436;BME280;48480;50.252;18.848;2022-10-31T09:58:23;99213.52;;;22.06;50.36
62436;BME280;48480;50.252;18.848;2022-10-31T10:00:50;99211.15;;;22.17;50.17
62436;BME280;48480;50.252;18.848;2022-10-31T10:06:14;99213.49;;;22.31;49.65
62436;BME280;48480;50.252;18.848;2022-10-31T10:08:40;99217.94;;;22.24;49.70
62436;BME280;48480;50.252;18.848;2022-10-31T10:11:28;99217.70;;;22.24;49.92
62436;BME280;48480;50.252;18.848;2022-10-31T10:17:04;99217.62;;;22.45;49.39
62436;BME280;48480;50.252;18.848;2022-10-31T10:19:54;99210.58;;;22.53;49.27
62436;BME280;48480;50.252;18.848;2022-10-31T10:25:23;99209.88;;;22.73;49.06
62436;BME280;48480;50.252;18.848;2022-10-31T10:30:45;99207.48;;;22.84;49.00
62436;BME280;48480;50.252;18.848;2022-10-31T10:33:33;99203.05;;;22.90;48.71
62436;BME280;48480;50.252;18.848;2022-10-31T10:36:04;99203.80;;;22.94;48.34
62436;BME280;48480;50.252;18.848;2022-10-31T10:38:38;99202.06;;;22.94;48.28
62436;BME280;48480;50.252;18.848;2022-10-31T10:41:24;99198.52;;;22.90;48.25
62436;BME280;48480;50.252;18.848;2022-10-31T10:43:52;99197.05;;;22.81;48.51
62436;BME280;48480;50.252;18.848;2022-10-31T10:46:40;99197.33;;;22.77;48.75
62436;BME280;48480;50.252;18.848;2022-10-31T11:00:14;99186.99;;;22.74;48.83
62436;BME280;48480;50.252;18.848;2022-10-31T11:02:42;99183.69;;;22.80;48.44
62436;BME280;48480;50.252;18.848;2022-10-31T11:05:22;99183.39;;;22.82;48.20
62436;BME280;48480;50.252;18.848;2022-10-31T11:07:48;99186.05;;;22.84;48.17
62436;BME280;48480;50.252;18.848;2022-10-31T11:10:15;99179.96;;;22.85;47.87
62436;BME280;48480;50.252;18.848;2022-10-31T11:12:43;99185.00;;;22.79;47.40
62436;BME280;48480;50.252;18.848;2022-10-31T11:15:22;99181.48;;;22.80;47.68
62436;BME280;48480;50.252;18.848;2022-10-31T11:17:50;99176.61;;;22.86;47.81
62436;BME280;48480;50.252;18.848;2022-10-31T11:22:46;99171.76;;;22.84;47.54
62436;BME280;48480;50.252;18.848;2022-10-31T11:27:44;99166.59;;;22.83;47.88
62436;BME280;48480;50.252;18.848;2022-10-31T11:30:14;99161.70;;;22.76;47.65
62436;BME280;48480;50.252;18.848;2022-10-31T11:32:47;99168.20;;;22.66;47.65
62436;BME280;48480;50.252;18.848;2022-10-31T11:35:16;99167.39;;;22.54;47.70
62436;BME280;48480;50.252;18.848;2022-10-31T11:37:45;99165.71;;;22.48;47.89
62436;BME280;48480;50.252;18.848;2022-10-31T11:40:22;99150.55;;;22.29;48.29
62436;BME280;48480;50.252;18.848;2022-10-31T11:42:50;99161.48;;;22.29;48.09
62436;BME280;48480;50.252;18.848;2022-10-31T11:45:27;99155.79;;;22.16;48.29
62436;BME280;48480;50.252;18.848;2022-10-31T11:47:56;99157.46;;;22.11;48.70
62436;BME280;48480;50.252;18.848;2022-10-31T11:50:24;99158.52;;;22.07;49.06
62436;BME280;48480;50.252;18.848;2022-10-31T11:52:52;99157.22;;;22.02;49.17
62436;BME280;48480;50.252;18.848;2022-10-31T11:55:34;99155.65;;;22.00;48.92
62436;BME280;48480;50.252;18.848;2022-10-31T11:58:00;99155.42;;;22.03;49.34
62436;BME280;48480;50.252;18.848;2022-10-31T12:00:28;99152.94;;;22.04;49.54
62436;BME280;48480;50.252;18.848;2022-10-31T12:03:11;99150.64;;;22.09;49.70
62436;BME280;48480;50.252;18.848;2022-10-31T12:05:39;99135.83;;;22.00;49.38
62436;BME280;48480;50.252;18.848;2022-10-31T12:08:11;99139.48;;;22.01;49.14
62436;BME280;48480;50.252;18.848;2022-10-31T12:10:51;99151.14;;;21.96;49.13
62436;BME280;48480;50.252;18.848;2022-10-31T12:13:34;99149.02;;;21.87;49.01
62436;BME280;48480;50.252;18.848;2022-10-31T12:16:29;99150.06;;;21.82;49.25
62436;BME280;48480;50.252;18.848;2022-10-31T12:19:03;99147.54;;;21.79;49.24
62436;BME280;48480;50.252;18.848;2022-10-31T12:24:33;99146.19;;;21.76;49.49
62436;BME280;48480;50.252;18.848;2022-10-31T12:29:52;99145.63;;;21.76;49.54
62436;BME280;48480;50.252;18.848;2022-10-31T12:35:31;99139.74;;;21.66;49.91
62436;BME280;48480;50.252;18.848;2022-10-31T12:38:22;99137.86;;;21.64;49.98
62436;BME280;48480;50.252;18.848;2022-10-31T12:41:05;99134.30;;;21.53;50.00
62436;BME280;48480;50.252;18.848;2022-10-31T12:43:43;99134.34;;;21.44;50.06
62436;BME280;48480;50.252;18.848;2022-10-31T12:46:20;99133.74;;;21.42;50.40
62436;BME280;48480;50.252;18.848;2022-10-31T12:54:32;99128.30;;;21.34;50.49
62436;BME280;48480;50.252;18.848;2022-10-31T13:02:26;99125.28;;;21.38;50.46
62436;BME280;48480;50.252;18.848;2022-10-31T13:05:15;99123.27;;;21.32;50.56
62436;BME280;48480;50.252;18.848;2022-10-31T13:08:06;99123.16;;;21.24;50.78
62436;BME280;48480;50.252;18.848;2022-10-31T13:10:42;99120.67;;;21.18;50.78
62436;BME280;48480;50.252;18.848;2022-10-31T13:13:37;99109.62;;;21.07;50.98
62436;BME280;48480;50.252;18.848;2022-10-31T13:18:44;99112.02;;;21.00;51.05
62436;BME280;48480;50.252;18.848;2022-10-31T13:21:21;99116.83;;;20.98;51.28
62436;BME280;48480;50.252;18.848;2022-10-31T13:23:50;99118.98;;;20.91;51.44
62436;BME280;48480;50.252;18.848;2022-10-31T13:31:34;99121.23;;;20.79;51.77
62436;BME280;48480;50.252;18.848;2022-10-31T13:34:16;99120.11;;;20.77;51.92
62436;BME280;48480;50.252;18.848;2022-10-31T13:37:16;99119.71;;;20.76;52.15
62436;BME280;48480;50.252;18.848;2022-10-31T13:39:54;99121.14;;;20.73;52.15
62436;BME280;48480;50.252;18.848;2022-10-31T13:45:52;99119.08;;;20.61;52.54
62436;BME280;48480;50.252;18.848;2022-10-31T13:51:01;99119.67;;;20.55;52.58
62436;BME280;48480;50.252;18.848;2022-10-31T13:53:39;99116.52;;;20.52;52.63
62436;BME280;48480;50.252;18.848;2022-10-31T13:56:14;99115.23;;;20.50;52.64
62436;BME280;48480;50.252;18.848;2022-10-31T13:58:54;99117.88;;;20.49;52.64
62436;BME280;48480;50.252;18.848;2022-10-31T14:01:24;99114.02;;;20.48;52.64
62436;BME280;48480;50.252;18.848;2022-10-31T14:04:23;99112.65;;;20.44;52.74
62436;BME280;48480;50.252;18.848;2022-10-31T14:09:28;99116.66;;;20.36;53.10
62436;BME280;48480;50.252;18.848;2022-10-31T14:12:01;99117.55;;;20.33;53.07
62436;BME280;48480;50.252;18.848;2022-10-31T14:14:34;99116.84;;;20.29;53.21
62436;BME280;48480;50.252;18.848;2022-10-31T14:17:05;99111.64;;;20.24;53.14
62436;BME280;48480;50.252;18.848;2022-10-31T14:19:31;99110.79;;;20.20;53.00
62436;BME280;48480;50.252;18.848;2022-10-31T14:21:56;99102.30;;;20.15;53.08
62436;BME280;48480;50.252;18.848;2022-10-31T14:29:33;99108.39;;;20.02;53.38
62436;BME280;48480;50.252;18.848;2022-10-31T14:37:39;99105.14;;;19.86;53.99
62436;BME280;48480;50.252;18.848;2022-10-31T14:40:13;99101.96;;;19.87;54.14
62436;BME280;48480;50.252;18.848;2022-10-31T14:45:24;99102.14;;;20.00;54.56
62436;BME280;48480;50.252;18.848;2022-10-31T14:50:42;99095.70;;;20.15;54.56
62436;BME280;48480;50.252;18.848;2022-10-31T14:53:19;99092.77;;;20.22;54.92
62436;BME280;48480;50.252;18.848;2022-10-31T14:55:49;99090.94;;;20.29;54.60
62436;BME280;48480;50.252;18.848;2022-10-31T14:58:24;99090.38;;;20.32;55.06
62436;BME280;48480;50.252;18.848;2022-10-31T15:00:55;99075.48;;;20.31;55.16
62436;BME280;48480;50.252;18.848;2022-10-31T15:03:27;99082.98;;;20.37;55.01
62436;BME280;48480;50.252;18.848;2022-10-31T15:05:56;99083.12;;;20.37;54.76
62436;BME280;48480;50.252;18.848;2022-10-31T15:11:24;99083.89;;;20.31;54.56
62436;BME280;48480;50.252;18.848;2022-10-31T15:13:53;99083.14;;;20.24;54.86
62436;BME280;48480;50.252;18.848;2022-10-31T15:16:45;99082.16;;;20.15;54.92